sensor_id;sensor_type;location;lat;lon;timestamp;P1;durP1;ratioP1;P2;durP2;ratioP2
46116;SDS011;32591;48.102;11.772;2023-05-07T00:01:42;4.70;;;3.08;;
46116;SDS011;32591;48.102;11.772;2023-05-07T00:04:10;4.50;;;3.00;;
46116;SDS011;32591;48.102;11.772;2023-05-07T00:06:38;4.60;;;3.15;;
46116;SDS011;32591;48.102;11.772;2023-05-07T00:09:06;5.50;;;2.92;;
46116;SDS011;32591;48.102;11.772;2023-05-07T00:11:33;4.82;;;3.15;;
46116;SDS011;32591;48.102;11.772;2023-05-07T00:14:00;4.78;;;2.88;;
46116;SDS011;32591;48.102;11.772;2023-05-07T00:16:27;4.93;;;2.75;;
46116;SDS011;32591;48.102;11.772;2023-05-07T00:18:55;4.68;;;2.90;;
46116;SDS011;32591;48.102;11.772;2023-05-07T00:21:22;4.22;;;3.10;;
46116;SDS011;32591;48.102;11.772;2023-05-07T00:23:51;6.63;;;3.53;;
46116;SDS011;32591;48.102;11.772;2023-05-07T00:26:18;6.75;;;4.47;;
46116;SDS011;32591;48.102;11.772;2023-05-07T00:28:45;7.45;;;4.13;;
46116;SDS011;32591;48.102;11.772;2023-05-07T00:31:12;4.25;;;3.25;;
46116;SDS011;32591;48.102;11.772;2023-05-07T00:33:39;5.55;;;3.58;;
46116;SDS011;32591;48.102;11.772;2023-05-07T00:36:08;6.53;;;3.85;;
46116;SDS011;32591;48.102;11.772;2023-05-07T00:38:35;6.40;;;3.20;;
46116;SDS011;32591;48.102;11.772;2023-05-07T00:41:02;4.63;;;3.28;;
46116;SDS011;32591;48.102;11.772;2023-05-07T00:43:30;5.40;;;3.90;;
46116;SDS011;32591;48.102;11.772;2023-05-07T00:45:58;4.55;;;3.22;;
46116;SDS011;32591;48.102;11.772;2023-05-07T00:48:26;7.43;;;3.47;;
46116;SDS011;32591;48.102;11.772;2023-05-07T00:50:53;5.35;;;3.50;;
46116;SDS011;32591;48.102;11.772;2023-05-07T00:53:22;5.07;;;3.95;;
46116;SDS011;32591;48.102;11.772;2023-05-07T00:55:49;7.30;;;4.50;;
46116;SDS011;32591;48.102;11.772;2023-05-07T00:58:17;4.25;;;3.42;;
46116;SDS011;32591;48.102;11.772;2023-05-07T01:00:44;5.93;;;3.58;;
46116;SDS011;32591;48.102;11.772;2023-05-07T01:03:11;4.82;;;3.45;;
46116;SDS011;32591;48.102;11.772;2023-05-07T01:05:38;4.55;;;3.45;;
46116;SDS011;32591;48.102;11.772;2023-05-07T01:08:06;4.75;;;3.08;;
46116;SDS011;32591;48.102;11.772;2023-05-07T01:10:34;5.70;;;4.45;;
46116;SDS011;32591;48.102;11.772;2023-05-07T01:13:02;5.65;;;3.60;;
46116;SDS011;32591;48.102;11.772;2023-05-07T01:15:30;3.70;;;3.10;;
46116;SDS011;32591;48.102;11.772;2023-05-07T01:17:58;6.13;;;3.30;;
46116;SDS011;32591;48.102;11.772;2023-05-07T01:20:25;6.40;;;3.63;;
46116;SDS011;32591;48.102;11.772;2023-05-07T01:22:53;5.15;;;3.85;;
46116;SDS011;32591;48.102;11.772;2023-05-07T01:25:21;4.97;;;3.42;;
46116;SDS011;32591;48.102;11.772;2023-05-07T01:27:49;4.88;;;3.45;;
46116;SDS011;32591;48.102;11.772;2023-05-07T01:30:16;6.82;;;3.65;;
46116;SDS011;32591;48.102;11.772;2023-05-07T01:32:45;5.15;;;3.90;;
46116;SDS011;32591;48.102;11.772;2023-05-07T01:35:18;5.50;;;3.40;;
46116;SDS011;32591;48.102;11.772;2023-05-07T01:37:48;4.63;;;3.50;;
46116;SDS011;32591;48.102;11.772;2023-05-07T01:40:17;5.43;;;3.50;;
46116;SDS011;32591;48.102;11.772;2023-05-07T01:42:45;5.00;;;3.13;;
46116;SDS011;32591;48.102;11.772;2023-05-07T01:45:13;4.40;;;3.25;;
46116;SDS011;32591;48.102;11.772;2023-05-07T01:47:42;9.85;;;4.22;;
46116;SDS011;32591;48.102;11.772;2023-05-07T01:50:10;4.60;;;4.10;;
46116;SDS011;32591;48.102;11.772;2023-05-07T01:52:38;4.47;;;3.80;;
46116;SDS011;32591;48.102;11.772;2023-05-07T01:55:05;5.35;;;3.63;;
46116;SDS011;32591;48.102;11.772;2023-05-07T01:57:35;5.43;;;3.30;;
46116;SDS011;32591;48.102;11.772;2023-05-07T02:00:02;5.97;;;3.42;;
46116;SDS011;32591;48.102;11.772;2023-05-07T02:02:30;5.20;;;3.17;;
46116;SDS011;32591;48.102;11.772;2023-05-07T02:04:57;7.38;;;3.90;;
46116;SDS011;32591;48.102;11.772;2023-05-07T02:07:26;4.90;;;3.35;;
46116;SDS011;32591;48.102;11.772;2023-05-07T02:09:53;4.68;;;3.90;;
46116;SDS011;32591;48.102;11.772;2023-05-07T02:12:21;5.05;;;3.97;;
46116;SDS011;32591;48.102;11.772;2023-05-07T02:14:50;3.95;;;3.40;;
46116;SDS011;32591;48.102;11.772;2023-05-07T02:17:17;5.97;;;4.43;;
46116;SDS011;32591;48.102;11.772;2023-05-07T02:19:44;5.32;;;3.45;;
46116;SDS011;32591;48.102;11.772;2023-05-07T02:22:11;4.10;;;3.22;;
46116;SDS011;32591;48.102;11.772;2023-05-07T02:24:38;5.85;;;3.50;;
46116;SDS011;32591;48.102;11.772;2023-05-07T02:27:05;4.57;;;3.28;;
46116;SDS011;32591;48.102;11.772;2023-05-07T02:29:32;4.75;;;3.08;;
46116;SDS011;32591;48.102;11.772;2023-05-07T02:32:00;4.10;;;2.97;;
46116;SDS011;32591;48.102;11.772;2023-05-07T02:34:27;4.15;;;3.05;;
46116;SDS011;32591;48.102;11.772;2023-05-07T02:36:54;5.35;;;3.20;;
46116;SDS011;32591;48.102;11.772;2023-05-07T02:39:21;6.32;;;3.33;;
46116;SDS011;32591;48.102;11.772;2023-05-07T02:41:48;4.05;;;3.03;;
46116;SDS011;32591;48.102;11.772;2023-05-07T02:44:15;5.60;;;3.40;;
46116;SDS011;32591;48.102;11.772;2023-05-07T02:46:42;3.20;;;2.83;;
46116;SDS011;32591;48.102;11.772;2023-05-07T02:49:11;4.65;;;3.05;;
46116;SDS011;32591;48.102;11.772;2023-05-07T02:51:38;3.83;;;3.00;;
46116;SDS011;32591;48.102;11.772;2023-05-07T02:54:05;4.30;;;2.75;;
46116;SDS011;32591;48.102;11.772;2023-05-07T02:56:32;6.05;;;3.40;;
46116;SDS011;32591;48.102;11.772;2023-05-07T02:58:59;6.93;;;3.38;;
46116;SDS011;32591;48.102;11.772;2023-05-07T03:01:26;4.15;;;2.88;;
46116;SDS011;32591;48.102;11.772;2023-05-07T03:03:53;5.18;;;3.42;;
46116;SDS011;32591;48.102;11.772;2023-05-07T03:06:22;4.55;;;3.45;;
46116;SDS011;32591;48.102;11.772;2023-05-07T03:08:49;7.20;;;4.25;;
46116;SDS011;32591;48.102;11.772;2023-05-07T03:11:16;4.60;;;3.05;;
46116;SDS011;32591;48.102;11.772;2023-05-07T03:13:43;5.57;;;3.80;;
46116;SDS011;32591;48.102;11.772;2023-05-07T03:16:10;4.13;;;3.72;;
46116;SDS011;32591;48.102;11.772;2023-05-07T03:18:37;4.90;;;3.45;;
46116;SDS011;32591;48.102;11.772;2023-05-07T03:21:04;4.55;;;3.53;;
46116;SDS011;32591;48.102;11.772;2023-05-07T03:23:32;5.50;;;3.20;;
46116;SDS011;32591;48.102;11.772;2023-05-07T03:26:00;5.25;;;3.30;;
46116;SDS011;32591;48.102;11.772;2023-05-07T03:28:27;4.30;;;3.20;;
46116;SDS011;32591;48.102;11.772;2023-05-07T03:30:54;4.53;;;3.55;;
46116;SDS011;32591;48.102;11.772;2023-05-07T03:33:21;6.63;;;3.75;;
46116;SDS011;32591;48.102;11.772;2023-05-07T03:35:48;6.00;;;3.65;;
46116;SDS011;32591;48.102;11.772;2023-05-07T03:38:15;4.50;;;3.42;;
46116;SDS011;32591;48.102;11.772;2023-05-07T03:40:43;5.22;;;3.50;;
46116;SDS011;32591;48.102;11.772;2023-05-07T03:43:10;7.55;;;3.90;;
46116;SDS011;32591;48.102;11.772;2023-05-07T03:45:37;5.85;;;3.28;;
46116;SDS011;32591;48.102;11.772;2023-05-07T03:48:04;6.50;;;3.38;;
46116;SDS011;32591;48.102;11.772;2023-05-07T03:50:31;4.10;;;3.40;;
46116;SDS011;32591;48.102;11.772;2023-05-07T03:52:58;4.65;;;3.75;;
46116;SDS011;32591;48.102;11.772;2023-05-07T03:55:25;8.95;;;4.45;;
46116;SDS011;32591;48.102;11.772;2023-05-07T03:57:54;3.78;;;3.33;;
46116;SDS011;32591;48.102;11.772;2023-05-07T04:00:21;4.10;;;3.35;;
46116;SDS011;32591;48.102;11.772;2023-05-07T04:02:48;6.63;;;3.65;;
46116;SDS011;32591;48.102;11.772;2023-05-07T04:05:16;4.53;;;3.58;;
46116;SDS011;32591;48.102;11.772;2023-05-07T04:07:43;4.70;;;3.38;;
46116;SDS011;32591;48.102;11.772;2023-05-07T04:10:11;5.05;;;3.67;;
46116;SDS011;32591;48.102;11.772;2023-05-07T04:12:38;6.10;;;3.53;;
46116;SDS011;32591;48.102;11.772;2023-05-07T04:15:07;5.30;;;3.83;;
46116;SDS011;32591;48.102;11.772;2023-05-07T04:17:35;4.32;;;3.35;;
46116;SDS011;32591;48.102;11.772;2023-05-07T04:20:02;4.15;;;3.28;;
46116;SDS011;32591;48.102;11.772;2023-05-07T04:22:32;4.95;;;3.53;;
46116;SDS011;32591;48.102;11.772;2023-05-07T04:24:59;3.70;;;3.10;;
46116;SDS011;32591;48.102;11.772;2023-05-07T04:27:29;4.65;;;3.15;;
46116;SDS011;32591;48.102;11.772;2023-05-07T04:29:57;5.07;;;3.28;;
46116;SDS011;32591;48.102;11.772;2023-05-07T04:32:27;4.40;;;3.17;;
46116;SDS011;32591;48.102;11.772;2023-05-07T04:34:54;4.38;;;3.17;;
46116;SDS011;32591;48.102;11.772;2023-05-07T04:37:21;7.07;;;3.45;;
46116;SDS011;32591;48.102;11.772;2023-05-07T04:39:48;4.35;;;3.45;;
46116;SDS011;32591;48.102;11.772;2023-05-07T04:42:16;5.22;;;3.83;;
46116;SDS011;32591;48.102;11.772;2023-05-07T04:44:43;4.68;;;3.53;;
46116;SDS011;32591;48.102;11.772;2023-05-07T04:47:11;4.20;;;3.22;;
46116;SDS011;32591;48.102;11.772;2023-05-07T04:49:40;5.10;;;3.30;;
46116;SDS011;32591;48.102;11.772;2023-05-07T04:52:07;5.88;;;3.83;;
46116;SDS011;32591;48.102;11.772;2023-05-07T04:54:34;5.97;;;3.53;;
46116;SDS011;32591;48.102;11.772;2023-05-07T04:57:03;4.78;;;3.63;;
46116;SDS011;32591;48.102;11.772;2023-05-07T04:59:30;5.40;;;3.35;;
46116;SDS011;32591;48.102;11.772;2023-05-07T05:01:58;5.07;;;3.55;;
46116;SDS011;32591;48.102;11.772;2023-05-07T05:04:25;5.55;;;3.45;;
46116;SDS011;32591;48.102;11.772;2023-05-07T05:06:53;6.50;;;3.92;;
46116;SDS011;32591;48.102;11.772;2023-05-07T05:09:20;4.90;;;3.40;;
46116;SDS011;32591;48.102;11.772;2023-05-07T05:11:48;5.05;;;3.53;;
46116;SDS011;32591;48.102;11.772;2023-05-07T05:14:15;3.88;;;3.45;;
46116;SDS011;32591;48.102;11.772;2023-05-07T05:16:42;4.70;;;4.10;;
46116;SDS011;32591;48.102;11.772;2023-05-07T05:19:09;6.20;;;3.90;;
46116;SDS011;32591;48.102;11.772;2023-05-07T05:21:36;5.63;;;3.83;;
46116;SDS011;32591;48.102;11.772;2023-05-07T05:24:05;6.55;;;3.83;;
46116;SDS011;32591;48.102;11.772;2023-05-07T05:26:33;6.93;;;4.25;;
46116;SDS011;32591;48.102;11.772;2023-05-07T05:29:00;5.50;;;4.03;;
46116;SDS011;32591;48.102;11.772;2023-05-07T05:31:27;6.38;;;3.55;;
46116;SDS011;32591;48.102;11.772;2023-05-07T05:33:54;4.10;;;3.42;;
46116;SDS011;32591;48.102;11.772;2023-05-07T05:36:21;5.57;;;3.50;;
46116;SDS011;32591;48.102;11.772;2023-05-07T05:38:49;5.13;;;3.70;;
46116;SDS011;32591;48.102;11.772;2023-05-07T05:41:17;6.18;;;4.45;;
46116;SDS011;32591;48.102;11.772;2023-05-07T05:43:44;6.20;;;4.25;;
46116;SDS011;32591;48.102;11.772;2023-05-07T05:46:11;6.20;;;4.78;;
46116;SDS011;32591;48.102;11.772;2023-05-07T05:48:38;6.03;;;4.40;;
46116;SDS011;32591;48.102;11.772;2023-05-07T05:51:06;6.97;;;5.75;;
46116;SDS011;32591;48.102;11.772;2023-05-07T05:53:33;5.88;;;4.82;;
46116;SDS011;32591;48.102;11.772;2023-05-07T05:56:00;8.07;;;5.20;;
46116;SDS011;32591;48.102;11.772;2023-05-07T05:58:28;6.43;;;5.07;;
46116;SDS011;32591;48.102;11.772;2023-05-07T06:00:55;6.80;;;4.93;;
46116;SDS011;32591;48.102;11.772;2023-05-07T06:03:23;10.02;;;5.97;;
46116;SDS011;32591;48.102;11.772;2023-05-07T06:05:50;7.13;;;4.93;;
46116;SDS011;32591;48.102;11.772;2023-05-07T06:08:17;6.55;;;4.53;;
46116;SDS011;32591;48.102;11.772;2023-05-07T06:10:44;6.18;;;4.50;;
46116;SDS011;32591;48.102;11.772;2023-05-07T06:13:11;6.55;;;4.45;;
46116;SDS011;32591;48.102;11.772;2023-05-07T06:15:40;6.28;;;4.50;;
46116;SDS011;32591;48.102;11.772;2023-05-07T06:18:07;6.32;;;4.00;;
46116;SDS011;32591;48.102;11.772;2023-05-07T06:20:34;5.30;;;3.97;;
46116;SDS011;32591;48.102;11.772;2023-05-07T06:23:01;5.80;;;3.78;;
46116;SDS011;32591;48.102;11.772;2023-05-07T06:25:28;4.60;;;3.50;;
46116;SDS011;32591;48.102;11.772;2023-05-07T06:27:55;4.35;;;3.60;;
46116;SDS011;32591;48.102;11.772;2023-05-07T06:30:23;4.28;;;3.08;;
46116;SDS011;32591;48.102;11.772;2023-05-07T06:32:51;3.83;;;2.95;;
46116;SDS011;32591;48.102;11.772;2023-05-07T06:35:18;3.80;;;2.80;;
46116;SDS011;32591;48.102;11.772;2023-05-07T06:37:45;5.53;;;3.10;;
46116;SDS011;32591;48.102;11.772;2023-05-07T06:40:12;6.32;;;3.67;;
46116;SDS011;32591;48.102;11.772;2023-05-07T06:42:39;3.30;;;2.88;;
46116;SDS011;32591;48.102;11.772;2023-05-07T06:45:07;4.07;;;3.13;;
46116;SDS011;32591;48.102;11.772;2023-05-07T06:47:36;6.38;;;3.60;;
46116;SDS011;32591;48.102;11.772;2023-05-07T06:50:04;4.88;;;2.75;;
46116;SDS011;32591;48.102;11.772;2023-05-07T06:52:33;4.90;;;3.00;;
46116;SDS011;32591;48.102;11.772;2023-05-07T06:55:00;4.47;;;3.10;;
46116;SDS011;32591;48.102;11.772;2023-05-07T06:57:28;6.55;;;3.15;;
46116;SDS011;32591;48.102;11.772;2023-05-07T06:59:55;3.25;;;2.70;;
46116;SDS011;32591;48.102;11.772;2023-05-07T07:02:22;3.28;;;2.70;;
46116;SDS011;32591;48.102;11.772;2023-05-07T07:04:49;5.07;;;2.90;;
46116;SDS011;32591;48.102;11.772;2023-05-07T07:07:18;6.05;;;2.70;;
46116;SDS011;32591;48.102;11.772;2023-05-07T07:09:45;3.67;;;2.80;;
46116;SDS011;32591;48.102;11.772;2023-05-07T07:12:12;4.60;;;2.90;;
46116;SDS011;32591;48.102;11.772;2023-05-07T07:14:39;4.10;;;3.45;;
46116;SDS011;32591;48.102;11.772;2023-05-07T07:17:06;5.70;;;3.80;;
46116;SDS011;32591;48.102;11.772;2023-05-07T07:19:34;4.50;;;3.13;;
46116;SDS011;32591;48.102;11.772;2023-05-07T07:22:01;4.32;;;3.15;;
46116;SDS011;32591;48.102;11.772;2023-05-07T07:24:30;5.60;;;3.78;;
46116;SDS011;32591;48.102;11.772;2023-05-07T07:26:57;4.15;;;2.80;;
46116;SDS011;32591;48.102;11.772;2023-05-07T07:29:24;5.43;;;3.50;;
46116;SDS011;32591;48.102;11.772;2023-05-07T07:31:51;4.30;;;2.92;;
46116;SDS011;32591;48.102;11.772;2023-05-07T07:34:18;6.85;;;2.75;;
46116;SDS011;32591;48.102;11.772;2023-05-07T07:36:45;3.50;;;2.72;;
46116;SDS011;32591;48.102;11.772;2023-05-07T07:39:12;3.70;;;2.90;;
46116;SDS011;32591;48.102;11.772;2023-05-07T07:41:41;4.82;;;2.80;;
46116;SDS011;32591;48.102;11.772;2023-05-07T07:44:08;3.40;;;2.60;;
46116;SDS011;32591;48.102;11.772;2023-05-07T07:46:38;5.05;;;2.70;;
46116;SDS011;32591;48.102;11.772;2023-05-07T07:49:05;5.10;;;2.90;;
46116;SDS011;32591;48.102;11.772;2023-05-07T07:51:32;3.92;;;2.80;;
46116;SDS011;32591;48.102;11.772;2023-05-07T07:53:59;2.83;;;2.40;;
46116;SDS011;32591;48.102;11.772;2023-05-07T07:56:27;4.05;;;2.80;;
46116;SDS011;32591;48.102;11.772;2023-05-07T07:58:56;6.28;;;2.60;;
46116;SDS011;32591;48.102;11.772;2023-05-07T08:01:23;4.53;;;3.00;;
46116;SDS011;32591;48.102;11.772;2023-05-07T08:03:51;3.42;;;2.72;;
46116;SDS011;32591;48.102;11.772;2023-05-07T08:06:18;4.32;;;2.45;;
46116;SDS011;32591;48.102;11.772;2023-05-07T08:08:45;5.65;;;2.95;;
46116;SDS011;32591;48.102;11.772;2023-05-07T08:11:13;5.32;;;2.70;;
46116;SDS011;32591;48.102;11.772;2023-05-07T08:13:40;2.47;;;2.25;;
46116;SDS011;32591;48.102;11.772;2023-05-07T08:16:08;3.72;;;2.95;;
46116;SDS011;32591;48.102;11.772;2023-05-07T08:18:36;3.75;;;3.17;;
46116;SDS011;32591;48.102;11.772;2023-05-07T08:21:03;3.97;;;2.58;;
46116;SDS011;32591;48.102;11.772;2023-05-07T08:23:31;4.72;;;2.88;;
46116;SDS011;32591;48.102;11.772;2023-05-07T08:25:59;3.45;;;2.33;;
46116;SDS011;32591;48.102;11.772;2023-05-07T08:28:26;3.15;;;2.28;;
46116;SDS011;32591;48.102;11.772;2023-05-07T08:30:53;4.88;;;3.00;;
46116;SDS011;32591;48.102;11.772;2023-05-07T08:33:22;3.20;;;2.35;;
46116;SDS011;32591;48.102;11.772;2023-05-07T08:35:50;4.38;;;2.58;;
46116;SDS011;32591;48.102;11.772;2023-05-07T08:38:16;3.75;;;2.28;;
46116;SDS011;32591;48.102;11.772;2023-05-07T08:40:43;6.03;;;2.85;;
46116;SDS011;32591;48.102;11.772;2023-05-07T08:43:12;4.60;;;3.55;;
46116;SDS011;32591;48.102;11.772;2023-05-07T08:45:40;4.88;;;2.58;;
46116;SDS011;32591;48.102;11.772;2023-05-07T08:48:08;5.13;;;2.72;;
46116;SDS011;32591;48.102;11.772;2023-05-07T08:50:42;4.57;;;2.33;;
46116;SDS011;32591;48.102;11.772;2023-05-07T08:53:09;2.45;;;2.03;;
46116;SDS011;32591;48.102;11.772;2023-05-07T08:55:36;4.15;;;2.40;;
46116;SDS011;32591;48.102;11.772;2023-05-07T08:58:03;4.15;;;2.47;;
46116;SDS011;32591;48.102;11.772;2023-05-07T09:00:30;2.65;;;2.17;;
46116;SDS011;32591;48.102;11.772;2023-05-07T09:02:58;2.97;;;1.92;;
46116;SDS011;32591;48.102;11.772;2023-05-07T09:05:27;4.40;;;2.38;;
46116;SDS011;32591;48.102;11.772;2023-05-07T09:07:58;2.55;;;1.80;;
46116;SDS011;32591;48.102;11.772;2023-05-07T09:10:25;5.43;;;1.95;;
46116;SDS011;32591;48.102;11.772;2023-05-07T09:12:52;4.68;;;2.50;;
46116;SDS011;32591;48.102;11.772;2023-05-07T09:15:19;2.78;;;1.77;;
46116;SDS011;32591;48.102;11.772;2023-05-07T09:17:47;4.03;;;1.70;;
46116;SDS011;32591;48.102;11.772;2023-05-07T09:20:14;3.65;;;2.03;;
46116;SDS011;32591;48.102;11.772;2023-05-07T09:22:43;2.75;;;1.80;;
46116;SDS011;32591;48.102;11.772;2023-05-07T09:25:11;5.25;;;2.17;;
46116;SDS011;32591;48.102;11.772;2023-05-07T09:27:38;2.45;;;1.92;;
46116;SDS011;32591;48.102;11.772;2023-05-07T09:30:08;3.65;;;1.95;;
46116;SDS011;32591;48.102;11.772;2023-05-07T09:32:36;2.47;;;1.60;;
46116;SDS011;32591;48.102;11.772;2023-05-07T09:35:04;3.08;;;1.80;;
46116;SDS011;32591;48.102;11.772;2023-05-07T09:37:32;2.17;;;1.70;;
46116;SDS011;32591;48.102;11.772;2023-05-07T09:39:59;4.05;;;2.30;;
46116;SDS011;32591;48.102;11.772;2023-05-07T09:42:28;3.28;;;2.10;;
46116;SDS011;32591;48.102;11.772;2023-05-07T09:44:55;3.33;;;2.08;;
46116;SDS011;32591;48.102;11.772;2023-05-07T09:47:23;4.05;;;2.45;;
46116;SDS011;32591;48.102;11.772;2023-05-07T09:49:53;5.88;;;2.65;;
46116;SDS011;32591;48.102;11.772;2023-05-07T09:52:23;2.50;;;2.15;;
46116;SDS011;32591;48.102;11.772;2023-05-07T09:54:53;3.17;;;2.20;;
46116;SDS011;32591;48.102;11.772;2023-05-07T09:57:24;3.60;;;2.33;;
46116;SDS011;32591;48.102;11.772;2023-05-07T09:59:55;4.00;;;2.38;;
46116;SDS011;32591;48.102;11.772;2023-05-07T10:02:25;3.08;;;2.42;;
46116;SDS011;32591;48.102;11.772;2023-05-07T10:04:55;4.32;;;2.55;;
46116;SDS011;32591;48.102;11.772;2023-05-07T10:07:25;4.85;;;2.25;;
46116;SDS011;32591;48.102;11.772;2023-05-07T10:09:52;3.65;;;2.65;;
46116;SDS011;32591;48.102;11.772;2023-05-07T10:12:20;3.05;;;2.35;;
46116;SDS011;32591;48.102;11.772;2023-05-07T10:14:49;2.95;;;2.33;;
46116;SDS011;32591;48.102;11.772;2023-05-07T10:17:19;4.88;;;1.88;;
46116;SDS011;32591;48.102;11.772;2023-05-07T10:19:47;2.47;;;2.15;;
46116;SDS011;32591;48.102;11.772;2023-05-07T10:22:15;3.15;;;2.20;;
46116;SDS011;32591;48.102;11.772;2023-05-07T10:24:44;4.57;;;1.92;;
46116;SDS011;32591;48.102;11.772;2023-05-07T10:27:15;3.55;;;2.47;;
46116;SDS011;32591;48.102;11.772;2023-05-07T10:29:45;3.78;;;1.90;;
46116;SDS011;32591;48.102;11.772;2023-05-07T10:32:30;3.60;;;1.90;;
46116;SDS011;32591;48.102;11.772;2023-05-07T10:35:06;4.57;;;2.17;;
46116;SDS011;32591;48.102;11.772;2023-05-07T10:37:40;2.22;;;1.80;;
46116;SDS011;32591;48.102;11.772;2023-05-07T10:40:08;2.80;;;1.90;;
46116;SDS011;32591;48.102;11.772;2023-05-07T10:42:37;2.75;;;1.55;;
46116;SDS011;32591;48.102;11.772;2023-05-07T10:45:14;3.05;;;1.80;;
46116;SDS011;32591;48.102;11.772;2023-05-07T10:50:39;4.13;;;1.85;;
46116;SDS011;32591;48.102;11.772;2023-05-07T10:53:23;4.15;;;1.88;;
46116;SDS011;32591;48.102;11.772;2023-05-07T10:58:53;3.42;;;2.00;;
46116;SDS011;32591;48.102;11.772;2023-05-07T11:04:18;4.30;;;2.75;;
46116;SDS011;32591;48.102;11.772;2023-05-07T11:10:04;4.38;;;3.20;;
46116;SDS011;32591;48.102;11.772;2023-05-07T11:12:49;5.82;;;3.33;;
46116;SDS011;32591;48.102;11.772;2023-05-07T11:18:15;4.32;;;3.05;;
46116;SDS011;32591;48.102;11.772;2023-05-07T11:20:44;4.13;;;2.88;;
46116;SDS011;32591;48.102;11.772;2023-05-07T11:26:44;5.75;;;3.10;;
46116;SDS011;32591;48.102;11.772;2023-05-07T11:29:14;4.45;;;2.90;;
46116;SDS011;32591;48.102;11.772;2023-05-07T11:31:44;3.55;;;2.85;;
46116;SDS011;32591;48.102;11.772;2023-05-07T11:34:21;5.43;;;3.40;;
46116;SDS011;32591;48.102;11.772;2023-05-07T11:36:50;4.30;;;3.60;;
46116;SDS011;32591;48.102;11.772;2023-05-07T11:39:25;4.32;;;3.17;;
46116;SDS011;32591;48.102;11.772;2023-05-07T11:41:54;6.10;;;3.35;;
46116;SDS011;32591;48.102;11.772;2023-05-07T11:44:22;4.00;;;3.42;;
46116;SDS011;32591;48.102;11.772;2023-05-07T11:46:49;5.03;;;3.67;;
46116;SDS011;32591;48.102;11.772;2023-05-07T11:49:16;4.07;;;3.30;;
46116;SDS011;32591;48.102;11.772;2023-05-07T11:51:48;6.00;;;3.60;;
46116;SDS011;32591;48.102;11.772;2023-05-07T11:54:16;5.85;;;3.60;;
46116;SDS011;32591;48.102;11.772;2023-05-07T11:56:43;5.20;;;3.70;;
46116;SDS011;32591;48.102;11.772;2023-05-07T11:59:16;4.57;;;3.75;;
46116;SDS011;32591;48.102;11.772;2023-05-07T12:01:45;5.00;;;3.30;;
46116;SDS011;32591;48.102;11.772;2023-05-07T12:04:19;4.97;;;3.38;;
46116;SDS011;32591;48.102;11.772;2023-05-07T12:06:48;5.43;;;3.80;;
46116;SDS011;32591;48.102;11.772;2023-05-07T12:09:21;6.75;;;3.67;;
46116;SDS011;32591;48.102;11.772;2023-05-07T12:11:51;4.60;;;3.20;;
46116;SDS011;32591;48.102;11.772;2023-05-07T12:14:19;7.25;;;3.25;;
46116;SDS011;32591;48.102;11.772;2023-05-07T12:16:47;5.07;;;3.20;;
46116;SDS011;32591;48.102;11.772;2023-05-07T12:19:15;4.93;;;3.13;;
46116;SDS011;32591;48.102;11.772;2023-05-07T12:21:43;4.82;;;2.88;;
46116;SDS011;32591;48.102;11.772;2023-05-07T12:24:12;5.13;;;3.13;;
46116;SDS011;32591;48.102;11.772;2023-05-07T12:26:43;6.80;;;3.22;;
46116;SDS011;32591;48.102;11.772;2023-05-07T12:29:10;5.93;;;3.50;;
46116;SDS011;32591;48.102;11.772;2023-05-07T12:31:40;6.47;;;3.75;;
46116;SDS011;32591;48.102;11.772;2023-05-07T12:34:07;5.47;;;3.33;;
46116;SDS011;32591;48.102;11.772;2023-05-07T12:36:37;5.75;;;4.30;;
46116;SDS011;32591;48.102;11.772;2023-05-07T12:39:05;4.68;;;3.10;;
46116;SDS011;32591;48.102;11.772;2023-05-07T12:41:43;4.28;;;3.10;;
46116;SDS011;32591;48.102;11.772;2023-05-07T12:44:21;5.53;;;3.45;;
46116;SDS011;32591;48.102;11.772;2023-05-07T12:46:49;5.15;;;3.25;;
46116;SDS011;32591;48.102;11.772;2023-05-07T12:49:16;4.68;;;3.50;;
46116;SDS011;32591;48.102;11.772;2023-05-07T12:51:44;4.85;;;2.70;;
46116;SDS011;32591;48.102;11.772;2023-05-07T12:54:12;4.90;;;3.25;;
46116;SDS011;32591;48.102;11.772;2023-05-07T12:56:41;5.05;;;3.53;;
46116;SDS011;32591;48.102;11.772;2023-05-07T12:59:08;3.05;;;2.55;;
46116;SDS011;32591;48.102;11.772;2023-05-07T13:01:35;5.38;;;2.85;;
46116;SDS011;32591;48.102;11.772;2023-05-07T13:04:02;3.53;;;2.60;;
46116;SDS011;32591;48.102;11.772;2023-05-07T13:06:30;4.75;;;2.72;;
46116;SDS011;32591;48.102;11.772;2023-05-07T13:08:57;4.43;;;2.38;;
46116;SDS011;32591;48.102;11.772;2023-05-07T13:11:24;6.32;;;2.70;;
46116;SDS011;32591;48.102;11.772;2023-05-07T13:13:52;4.32;;;2.60;;
46116;SDS011;32591;48.102;11.772;2023-05-07T13:16:20;4.35;;;2.60;;
46116;SDS011;32591;48.102;11.772;2023-05-07T13:18:46;3.35;;;2.10;;
46116;SDS011;32591;48.102;11.772;2023-05-07T13:21:13;3.28;;;2.45;;
46116;SDS011;32591;48.102;11.772;2023-05-07T13:23:40;3.42;;;2.30;;
46116;SDS011;32591;48.102;11.772;2023-05-07T13:26:07;3.03;;;2.42;;
46116;SDS011;32591;48.102;11.772;2023-05-07T13:28:35;4.45;;;2.70;;
46116;SDS011;32591;48.102;11.772;2023-05-07T13:31:03;3.63;;;2.47;;
46116;SDS011;32591;48.102;11.772;2023-05-07T13:33:30;4.65;;;2.33;;
46116;SDS011;32591;48.102;11.772;2023-05-07T13:35:57;2.75;;;2.05;;
46116;SDS011;32591;48.102;11.772;2023-05-07T13:38:25;4.85;;;2.20;;
46116;SDS011;32591;48.102;11.772;2023-05-07T13:40:52;2.50;;;2.15;;
46116;SDS011;32591;48.102;11.772;2023-05-07T13:43:19;2.75;;;1.90;;
46116;SDS011;32591;48.102;11.772;2023-05-07T13:45:46;4.22;;;2.33;;
46116;SDS011;32591;48.102;11.772;2023-05-07T13:48:14;4.22;;;2.20;;
46116;SDS011;32591;48.102;11.772;2023-05-07T13:50:41;2.30;;;1.77;;
46116;SDS011;32591;48.102;11.772;2023-05-07T13:53:08;2.15;;;1.75;;
46116;SDS011;32591;48.102;11.772;2023-05-07T13:55:35;4.05;;;2.00;;
46116;SDS011;32591;48.102;11.772;2023-05-07T13:58:02;2.50;;;2.03;;
46116;SDS011;32591;48.102;11.772;2023-05-07T14:00:29;4.43;;;2.65;;
46116;SDS011;32591;48.102;11.772;2023-05-07T14:02:56;2.30;;;1.90;;
46116;SDS011;32591;48.102;11.772;2023-05-07T14:05:25;3.67;;;2.35;;
46116;SDS011;32591;48.102;11.772;2023-05-07T14:07:53;2.58;;;2.00;;
46116;SDS011;32591;48.102;11.772;2023-05-07T14:10:20;5.60;;;2.13;;
46116;SDS011;32591;48.102;11.772;2023-05-07T14:12:47;2.80;;;2.08;;
46116;SDS011;32591;48.102;11.772;2023-05-07T14:15:14;2.97;;;1.90;;
46116;SDS011;32591;48.102;11.772;2023-05-07T14:17:42;3.72;;;1.80;;
46116;SDS011;32591;48.102;11.772;2023-05-07T14:20:09;3.78;;;2.50;;
46116;SDS011;32591;48.102;11.772;2023-05-07T14:22:38;4.30;;;2.25;;
46116;SDS011;32591;48.102;11.772;2023-05-07T14:25:06;5.03;;;2.20;;
46116;SDS011;32591;48.102;11.772;2023-05-07T14:27:34;4.95;;;2.53;;
46116;SDS011;32591;48.102;11.772;2023-05-07T14:30:01;5.57;;;2.40;;
46116;SDS011;32591;48.102;11.772;2023-05-07T14:32:29;2.58;;;2.22;;
46116;SDS011;32591;48.102;11.772;2023-05-07T14:34:55;2.75;;;1.92;;
46116;SDS011;32591;48.102;11.772;2023-05-07T14:37:23;3.40;;;2.13;;
46116;SDS011;32591;48.102;11.772;2023-05-07T14:39:51;5.05;;;2.55;;
46116;SDS011;32591;48.102;11.772;2023-05-07T14:42:18;3.90;;;2.22;;
46116;SDS011;32591;48.102;11.772;2023-05-07T14:44:45;3.05;;;1.80;;
46116;SDS011;32591;48.102;11.772;2023-05-07T14:47:13;4.10;;;1.98;;
46116;SDS011;32591;48.102;11.772;2023-05-07T14:49:41;3.13;;;2.08;;
46116;SDS011;32591;48.102;11.772;2023-05-07T14:52:08;2.72;;;1.98;;
46116;SDS011;32591;48.102;11.772;2023-05-07T14:54:36;3.28;;;2.10;;
46116;SDS011;32591;48.102;11.772;2023-05-07T14:57:05;4.40;;;2.20;;